Kea — 9HA2207 — position and weather

sailwx.info

Track history (hours):
 
Tides and Currents Weather Stations Pressure Air Temp Water Temp Dewpoint Dewpoint Depression Visibility Wind Speed Wind Dir Waves Ship Positions

Kea

Last reported at 2018-Apr-02 22:05 UTC. Time now 2018-May-21 15:17 UTC.
Position S 32°39' E 152°57'.
Warning: this ship's position is 48 days out of date.

Length 225 m; draft 12.6 m.

Type: Cargo ship. MMSI: 248150000.

Date/timePositionNaut miles runAvg speedWind from/ knotsBaromVisibWave heightAir tempDewpointWater temp
2018-Apr-02 22:05S 32°39' E 152°57'1 9.1
2018-Apr-02 22:00S 32°39' E 152°57'5 8.7
2018-Apr-02 21:29S 32°43' E 152°55'14 7.9
2018-Apr-02 19:45S 32°54' E 152°44'310.4
2018-Apr-02 19:30S 32°54' E 152°41'510.5
2018-Apr-02 19:00S 32°54' E 152°34'510.3
2018-Apr-02 18:30S 32°55' E 152°28'510.2
2018-Apr-02 18:00S 32°55' E 152°22'510.2
2018-Apr-02 17:30S 32°55' E 152°16'510.3
2018-Apr-02 17:00S 32°56' E 152°10'510.5
2018-Apr-02 16:30S 32°57' E 152°04'510.7
2018-Apr-02 16:00S 32°57' E 151°58'6 8.9
2018-Apr-02 15:17S 32°57' E 151°50'3 8.7
2018-Apr-02 14:59S 32°55' E 151°49'2 3.9
2018-Apr-02 14:30S 32°54' E 151°46'0 0.6
2018-Apr-02 13:58S 32°54' E 151°46'0 0.0
2018-Apr-02 13:28S 32°54' E 151°46'0 0.0
2018-Apr-02 12:58S 32°54' E 151°46'0 0.0
2018-Apr-02 12:28S 32°54' E 151°46'0 0.0
2018-Apr-02 11:55S 32°54' E 151°46'0 0.0
2018-Apr-02 11:28S 32°54' E 151°46'0 0.0
2018-Apr-02 10:58S 32°54' E 151°46'0 0.0
2018-Apr-02 10:28S 32°54' E 151°46'0 0.0
2018-Apr-02 09:58S 32°54' E 151°46'0 0.0
2018-Apr-02 09:28S 32°54' E 151°46'0 0.0
2018-Apr-02 08:58S 32°54' E 151°46'0 0.0
2018-Apr-02 08:28S 32°54' E 151°46'0 0.0
2018-Apr-02 07:58S 32°54' E 151°46'0 0.0
2018-Apr-02 07:28S 32°54' E 151°46'0 0.0
2018-Apr-02 06:58S 32°54' E 151°46'0 0.0
2018-Apr-02 06:28S 32°54' E 151°46'0 0.0
2018-Apr-02 05:58S 32°54' E 151°46'0 0.0
2018-Apr-02 05:28S 32°54' E 151°46'0 0.0
2018-Apr-02 04:58S 32°54' E 151°46'0 0.0
2018-Apr-02 04:28S 32°54' E 151°46'0 0.0
2018-Apr-02 03:58S 32°54' E 151°46'0 0.0
2018-Apr-02 03:25S 32°54' E 151°46'0 0.0
2018-Apr-02 02:55S 32°54' E 151°46'0 0.0
2018-Apr-02 02:28S 32°54' E 151°46'0 0.0
2018-Apr-02 01:52S 32°54' E 151°46'0 0.0
2018-Apr-02 01:28S 32°54' E 151°46'0 0.0
2018-Apr-02 00:58S 32°54' E 151°46'0 0.0
2018-Apr-02 00:28S 32°54' E 151°46'0 0.0
2018-Apr-02 00:01S 32°54' E 151°46'0 0.0
2018-Apr-01 23:28S 32°54' E 151°46'0 0.0
2018-Apr-01 23:01S 32°54' E 151°46'0 0.0
2018-Apr-01 22:25S 32°54' E 151°46'0 0.0
2018-Apr-01 21:58S 32°54' E 151°46'0 0.0
2018-Apr-01 21:25S 32°54' E 151°46'0 0.0
2018-Apr-01 20:58S 32°54' E 151°46'0 0.0
2018-Apr-01 20:31S 32°54' E 151°46'0 0.0
2018-Apr-01 20:01S 32°54' E 151°46'0 0.0
2018-Apr-01 19:31S 32°54' E 151°46'0 0.0
2018-Apr-01 18:58S 32°54' E 151°46'0 0.0
2018-Apr-01 18:28S 32°54' E 151°46'0 0.0
2018-Apr-01 18:01S 32°54' E 151°46'0 0.0
2018-Apr-01 17:28S 32°54' E 151°46'0 0.0
2018-Apr-01 17:01S 32°54' E 151°46'0 0.0
2018-Apr-01 16:31S 32°54' E 151°46'0 0.0
2018-Apr-01 15:58S 32°54' E 151°46'0 0.0
2018-Apr-01 15:25S 32°54' E 151°46'0 0.0
2018-Apr-01 14:58S 32°54' E 151°46'0 0.0
2018-Apr-01 14:28S 32°54' E 151°46'0 0.0
2018-Apr-01 14:01S 32°54' E 151°46'0 0.0
2018-Apr-01 13:30S 32°54' E 151°46'1 1.2
2018-Apr-01 13:00S 32°54' E 151°46'2 3.7
2018-Apr-01 12:31S 32°55' E 151°47'3 5.7
2018-Apr-01 12:01S 32°55' E 151°50'4 8.5
2018-Apr-01 11:30S 32°59' E 151°52'3 6.3
2018-Apr-01 11:00S 33°02' E 151°55'2 4.7
2018-Apr-01 10:29S 33°03' E 151°57'1 1.8
2018-Apr-01 09:56S 33°03' E 151°58'1 2.1
2018-Apr-01 09:28S 33°03' E 151°59'1 1.8
2018-Apr-01 08:55S 33°03' E 152°01'1 2.0
2018-Apr-01 08:30S 33°03' E 152°02'2 5.0
2018-Apr-01 08:00S 33°05' E 152°04'1 2.0
2018-Apr-01 07:30S 33°05' E 152°05'1 2.3
2018-Apr-01 07:00S 33°03' E 152°04'4 8.7
2018-Apr-01 06:30S 33°01' E 152°00'4 7.4
2018-Apr-01 06:00S 32°57' E 151°59'510.2
2018-Apr-01 05:30S 32°57' E 152°05'510.6
2018-Apr-01 05:00S 32°56' E 152°11'510.5
2018-Apr-01 04:30S 32°56' E 152°17'510.6
2018-Apr-01 04:00S 32°55' E 152°24'511.0
2018-Apr-01 03:30S 32°55' E 152°30'511.0
2018-Apr-01 03:00S 32°55' E 152°37'611.1
2018-Apr-01 02:30S 32°56' E 152°43'611.1
2018-Apr-01 02:00S 32°57' E 152°50'49 9.7
2018-Mar-31 20:58S 32°34' E 153°41'  
Track history (hours):
 
Tides and Currents Weather Stations Pressure Air Temp Water Temp Dewpoint Dewpoint Depression Visibility Wind Speed Wind Dir Waves Ship Positions

Kea

Last reported at 2018-Apr-02 22:05 UTC. Time now 2018-May-21 15:17 UTC.
Position S 32°39' E 152°57'.
Warning: this ship's position is 48 days out of date.

Length 225 m; draft 12.6 m.

Type: Cargo ship. MMSI: 248150000.

Date/timePositionNaut miles runAvg speedWind from/ knotsBaromVisibWave heightAir tempDewpointWater temp
2018-Apr-02 22:05S 32°39' E 152°57'1 9.1
2018-Apr-02 22:00S 32°39' E 152°57'5 8.7
2018-Apr-02 21:29S 32°43' E 152°55'14 7.9
2018-Apr-02 19:45S 32°54' E 152°44'310.4
2018-Apr-02 19:30S 32°54' E 152°41'510.5
2018-Apr-02 19:00S 32°54' E 152°34'510.3
2018-Apr-02 18:30S 32°55' E 152°28'510.2
2018-Apr-02 18:00S 32°55' E 152°22'510.2
2018-Apr-02 17:30S 32°55' E 152°16'510.3
2018-Apr-02 17:00S 32°56' E 152°10'510.5
2018-Apr-02 16:30S 32°57' E 152°04'510.7
2018-Apr-02 16:00S 32°57' E 151°58'6 8.9
2018-Apr-02 15:17S 32°57' E 151°50'3 8.7
2018-Apr-02 14:59S 32°55' E 151°49'2 3.9
2018-Apr-02 14:30S 32°54' E 151°46'0 0.6
2018-Apr-02 13:58S 32°54' E 151°46'0 0.0
2018-Apr-02 13:28S 32°54' E 151°46'0 0.0
2018-Apr-02 12:58S 32°54' E 151°46'0 0.0
2018-Apr-02 12:28S 32°54' E 151°46'0 0.0
2018-Apr-02 11:55S 32°54' E 151°46'0 0.0
2018-Apr-02 11:28S 32°54' E 151°46'0 0.0
2018-Apr-02 10:58S 32°54' E 151°46'0 0.0
2018-Apr-02 10:28S 32°54' E 151°46'0 0.0
2018-Apr-02 09:58S 32°54' E 151°46'0 0.0
2018-Apr-02 09:28S 32°54' E 151°46'0 0.0
2018-Apr-02 08:58S 32°54' E 151°46'0 0.0
2018-Apr-02 08:28S 32°54' E 151°46'0 0.0
2018-Apr-02 07:58S 32°54' E 151°46'0 0.0
2018-Apr-02 07:28S 32°54' E 151°46'0 0.0
2018-Apr-02 06:58S 32°54' E 151°46'0 0.0
2018-Apr-02 06:28S 32°54' E 151°46'0 0.0
2018-Apr-02 05:58S 32°54' E 151°46'0 0.0
2018-Apr-02 05:28S 32°54' E 151°46'0 0.0
2018-Apr-02 04:58S 32°54' E 151°46'0 0.0
2018-Apr-02 04:28S 32°54' E 151°46'0 0.0
2018-Apr-02 03:58S 32°54' E 151°46'0 0.0
2018-Apr-02 03:25S 32°54' E 151°46'0 0.0
2018-Apr-02 02:55S 32°54' E 151°46'0 0.0
2018-Apr-02 02:28S 32°54' E 151°46'0 0.0
2018-Apr-02 01:52S 32°54' E 151°46'0 0.0
2018-Apr-02 01:28S 32°54' E 151°46'0 0.0
2018-Apr-02 00:58S 32°54' E 151°46'0 0.0
2018-Apr-02 00:28S 32°54' E 151°46'0 0.0
2018-Apr-02 00:01S 32°54' E 151°46'0 0.0
2018-Apr-01 23:28S 32°54' E 151°46'0 0.0
2018-Apr-01 23:01S 32°54' E 151°46'0 0.0
2018-Apr-01 22:25S 32°54' E 151°46'0 0.0
2018-Apr-01 21:58S 32°54' E 151°46'0 0.0
2018-Apr-01 21:25S 32°54' E 151°46'0 0.0
2018-Apr-01 20:58S 32°54' E 151°46'0 0.0
2018-Apr-01 20:31S 32°54' E 151°46'0 0.0
2018-Apr-01 20:01S 32°54' E 151°46'0 0.0
2018-Apr-01 19:31S 32°54' E 151°46'0 0.0
2018-Apr-01 18:58S 32°54' E 151°46'0 0.0
2018-Apr-01 18:28S 32°54' E 151°46'0 0.0
2018-Apr-01 18:01S 32°54' E 151°46'0 0.0
2018-Apr-01 17:28S 32°54' E 151°46'0 0.0
2018-Apr-01 17:01S 32°54' E 151°46'0 0.0
2018-Apr-01 16:31S 32°54' E 151°46'0 0.0
2018-Apr-01 15:58S 32°54' E 151°46'0 0.0
2018-Apr-01 15:25S 32°54' E 151°46'0 0.0
2018-Apr-01 14:58S 32°54' E 151°46'0 0.0
2018-Apr-01 14:28S 32°54' E 151°46'0 0.0
2018-Apr-01 14:01S 32°54' E 151°46'0 0.0
2018-Apr-01 13:30S 32°54' E 151°46'1 1.2
2018-Apr-01 13:00S 32°54' E 151°46'2 3.7
2018-Apr-01 12:31S 32°55' E 151°47'3 5.7
2018-Apr-01 12:01S 32°55' E 151°50'4 8.5
2018-Apr-01 11:30S 32°59' E 151°52'3 6.3
2018-Apr-01 11:00S 33°02' E 151°55'2 4.7
2018-Apr-01 10:29S 33°03' E 151°57'1 1.8
2018-Apr-01 09:56S 33°03' E 151°58'1 2.1
2018-Apr-01 09:28S 33°03' E 151°59'1 1.8
2018-Apr-01 08:55S 33°03' E 152°01'1 2.0
2018-Apr-01 08:30S 33°03' E 152°02'2 5.0
2018-Apr-01 08:00S 33°05' E 152°04'1 2.0
2018-Apr-01 07:30S 33°05' E 152°05'1 2.3
2018-Apr-01 07:00S 33°03' E 152°04'4 8.7
2018-Apr-01 06:30S 33°01' E 152°00'4 7.4
2018-Apr-01 06:00S 32°57' E 151°59'510.2
2018-Apr-01 05:30S 32°57' E 152°05'510.6
2018-Apr-01 05:00S 32°56' E 152°11'510.5
2018-Apr-01 04:30S 32°56' E 152°17'510.6
2018-Apr-01 04:00S 32°55' E 152°24'511.0
2018-Apr-01 03:30S 32°55' E 152°30'511.0
2018-Apr-01 03:00S 32°55' E 152°37'611.1
2018-Apr-01 02:30S 32°56' E 152°43'611.1
2018-Apr-01 02:00S 32°57' E 152°50'49 9.7
2018-Mar-31 20:58S 32°34' E 153°41'  

Dump ship's entire track history